Time;durP1;ratioP1;P1;durP2;ratioP2;P2;SDS_P1;SDS_P2;PMS_P1;PMS_P2;Temp;Humidity;BMP_temperature;BMP_pressure;BME280_temperature;BME280_humidity;BME280_pressure;Samples;Min_cycle;Max_cycle;Signal;HPM_P1;HPM_P2
2023/04/09 00:00:09;;;;;;;42.40;23.15;;;;;;;;;;5033265;28;20030;-64
2023/04/09 00:02:35;;;;;;;37.50;23.20;;;;;;;;;;5031985;28;20490;-65
2023/04/09 00:05:01;;;;;;;41.13;23.25;;;;;;;;;;5031268;28;20029;-66
2023/04/09 00:07:28;;;;;;;41.78;24.15;;;;;;;;;;5033182;28;20030;-65
2023/04/09 00:09:54;;;;;;;37.75;22.40;;;;;;;;;;5031767;28;20108;-66
2023/04/09 00:12:20;;;;;;;38.67;23.08;;;;;;;;;;5033192;28;20100;-64
2023/04/09 00:14:46;;;;;;;37.97;22.80;;;;;;;;;;5032431;28;20045;-65
2023/04/09 00:17:12;;;;;;;40.65;24.95;;;;;;;;;;5032956;28;20026;-65
2023/04/09 00:19:38;;;;;;;44.55;23.88;;;;;;;;;;5032856;28;20116;-65
2023/04/09 00:22:04;;;;;;;37.85;23.05;;;;;;;;;;5033138;28;20084;-64
2023/04/09 00:24:30;;;;;;;39.45;24.60;;;;;;;;;;5032203;28;20030;-65
2023/04/09 00:26:56;;;;;;;38.47;22.75;;;;;;;;;;5032994;28;20040;-65
2023/04/09 00:29:22;;;;;;;39.38;23.15;;;;;;;;;;5031593;28;20444;-64
2023/04/09 00:31:48;;;;;;;35.28;21.35;;;;;;;;;;5032714;28;20032;-66
2023/04/09 00:34:14;;;;;;;35.72;23.55;;;;;;;;;;5030196;28;20030;-65
2023/04/09 00:36:40;;;;;;;41.15;23.48;;;;;;;;;;5031388;28;20018;-66
2023/04/09 00:39:06;;;;;;;41.28;24.13;;;;;;;;;;5033016;28;20032;-66
2023/04/09 00:41:32;;;;;;;42.50;24.70;;;;;;;;;;5032625;28;20037;-64
2023/04/09 00:43:58;;;;;;;41.70;25.50;;;;;;;;;;5031636;28;20053;-65
2023/04/09 00:46:24;;;;;;;40.50;26.00;;;;;;;;;;5032639;28;20104;-65
2023/04/09 00:48:50;;;;;;;41.25;27.92;;;;;;;;;;5031398;28;20022;-65
2023/04/09 00:51:16;;;;;;;41.75;26.45;;;;;;;;;;5032754;28;20489;-64
2023/04/09 00:53:43;;;;;;;46.38;28.70;;;;;;;;;;5020314;28;20104;-65
2023/04/09 00:56:10;;;;;;;44.45;26.52;;;;;;;;;;5014749;28;20040;-64
2023/04/09 00:58:36;;;;;;;43.95;28.02;;;;;;;;;;5031579;28;20044;-66
2023/04/09 01:01:02;;;;;;;42.78;27.27;;;;;;;;;;5014824;28;20124;-65
2023/04/09 01:03:29;;;;;;;45.92;27.73;;;;;;;;;;5013992;28;20033;-64
2023/04/09 01:06:07;;;;;;;46.20;28.88;;;;;;;;;;5014224;28;20119;-66
2023/04/09 01:08:45;;;;;;;43.17;27.95;;;;;;;;;;5032058;28;20029;-65
2023/04/09 01:11:11;;;;;;;;;;;;;;;;;;5015037;28;20063;-65
2023/04/09 01:13:46;;;;;;;43.72;28.30;;;;;;;;;;5014019;28;19947;-65
2023/04/09 01:16:14;;;;;;;44.72;30.50;;;;;;;;;;5032416;28;20060;-65
2023/04/09 01:18:57;;;;;;;50.08;32.25;;;;;;;;;;5014442;28;20033;-64
2023/04/09 01:21:26;;;;;;;47.53;31.40;;;;;;;;;;5014391;28;20565;-64
2023/04/09 01:24:11;;;;;;;49.30;32.80;;;;;;;;;;5013684;28;20501;-64
2023/04/09 01:26:49;;;;;;;55.97;33.83;;;;;;;;;;5031249;28;20116;-64
2023/04/09 01:29:16;;;;;;;53.45;32.92;;;;;;;;;;5031687;28;20036;-64
2023/04/09 01:31:43;;;;;;;49.58;30.40;;;;;;;;;;5014322;28;20017;-64
2023/04/09 01:34:10;;;;;;;51.63;31.08;;;;;;;;;;5013660;28;20029;-65
2023/04/09 01:36:38;;;;;;;49.28;32.90;;;;;;;;;;5014285;28;20091;-64
2023/04/09 01:39:04;;;;;;;46.75;31.02;;;;;;;;;;5031873;28;20052;-65
2023/04/09 01:41:32;;;;;;;49.15;31.30;;;;;;;;;;5014166;28;20385;-65
2023/04/09 01:44:00;;;;;;;46.70;32.13;;;;;;;;;;5013269;28;20029;-65
2023/04/09 01:46:26;;;;;;;;;;;;;;;;;;5014628;28;20029;-65
2023/04/09 01:48:52;;;;;;;49.00;32.17;;;;;;;;;;5031872;28;20016;-61
2023/04/09 01:51:18;;;;;;;53.03;34.15;;;;;;;;;;5014038;28;20397;-65
2023/04/09 01:53:44;;;;;;;52.30;35.50;;;;;;;;;;5013271;28;20071;-65
2023/04/09 01:56:10;;;;;;;57.05;36.63;;;;;;;;;;5013823;28;20021;-65
2023/04/09 01:58:36;;;;;;;57.15;38.08;;;;;;;;;;5013933;28;20021;-65
2023/04/09 02:01:02;;;;;;;57.42;37.85;;;;;;;;;;5014061;28;20439;-65
2023/04/09 02:03:32;;;;;;;57.40;36.15;;;;;;;;;;5030839;28;20030;-63
2023/04/09 02:06:08;;;;;;;60.70;38.05;;;;;;;;;;5031774;28;20036;-64
2023/04/09 02:08:35;;;;;;;64.72;41.70;;;;;;;;;;5031702;28;20500;-64
2023/04/09 02:11:03;;;;;;;62.97;39.78;;;;;;;;;;5017600;28;20063;-65
2023/04/09 02:13:29;;;;;;;;;;;;;;;;;;5017192;28;20021;-64
2023/04/09 02:15:56;;;;;;;61.45;40.20;;;;;;;;;;5017445;28;20340;-65
2023/04/09 02:18:22;;;;;;;68.15;45.15;;;;;;;;;;5035158;28;20017;-65
2023/04/09 02:20:49;;;;;;;61.42;40.47;;;;;;;;;;5017662;28;20030;-65
2023/04/09 02:23:16;;;;;;;72.80;43.38;;;;;;;;;;5034470;28;20048;-65
2023/04/09 02:25:43;;;;;;;64.07;42.78;;;;;;;;;;5017238;28;20406;-65
2023/04/09 02:28:09;;;;;;;69.63;42.20;;;;;;;;;;5035102;28;20025;-65
2023/04/09 02:30:35;;;;;;;62.90;40.50;;;;;;;;;;5023659;28;20137;-65
2023/04/09 02:33:01;;;;;;;64.47;43.67;;;;;;;;;;5033934;28;20367;-64
2023/04/09 02:35:27;;;;;;;67.80;43.15;;;;;;;;;;5028975;28;20041;-64
2023/04/09 02:37:54;;;;;;;66.85;45.72;;;;;;;;;;5034717;28;20022;-66
2023/04/09 02:40:20;;;;;;;66.38;43.78;;;;;;;;;;5035069;28;20028;-64
2023/04/09 02:42:46;;;;;;;68.40;43.72;;;;;;;;;;5034968;28;20025;-65
2023/04/09 02:45:12;;;;;;;71.53;45.60;;;;;;;;;;5032779;28;20048;-64
2023/04/09 02:47:38;;;;;;;74.60;44.10;;;;;;;;;;5034522;28;20482;-65
2023/04/09 02:50:05;;;;;;;76.75;44.92;;;;;;;;;;5033437;28;20079;-65
2023/04/09 02:52:31;;;;;;;74.57;45.10;;;;;;;;;;5033633;28;20018;-64
2023/04/09 02:54:57;;;;;;;73.75;44.65;;;;;;;;;;5032850;28;20367;-64
2023/04/09 02:57:23;;;;;;;70.65;43.97;;;;;;;;;;5033405;28;20569;-64
2023/04/09 02:59:49;;;;;;;71.75;46.05;;;;;;;;;;5033429;28;20513;-66
2023/04/09 03:02:15;;;;;;;64.45;43.70;;;;;;;;;;5033434;28;20030;-65
2023/04/09 03:04:41;;;;;;;65.47;43.00;;;;;;;;;;5034319;28;20025;-65
2023/04/09 03:07:07;;;;;;;64.88;43.25;;;;;;;;;;5035113;28;20498;-64
2023/04/09 03:09:33;;;;;;;67.72;42.22;;;;;;;;;;5032960;28;20036;-65
2023/04/09 03:12:00;;;;;;;66.15;42.90;;;;;;;;;;5033993;28;20025;-65
2023/04/09 03:14:26;;;;;;;67.30;41.53;;;;;;;;;;5033297;28;20782;-65
2023/04/09 03:16:52;;;;;;;65.28;40.25;;;;;;;;;;5034155;28;20028;-65
2023/04/09 03:19:18;;;;;;;66.53;41.25;;;;;;;;;;5032996;28;20029;-65
2023/04/09 03:21:45;;;;;;;65.65;42.92;;;;;;;;;;5032415;28;20095;-65
2023/04/09 03:24:11;;;;;;;64.78;41.38;;;;;;;;;;5033349;28;20033;-66
2023/04/09 03:26:37;;;;;;;67.57;40.22;;;;;;;;;;5032922;28;20448;-65
2023/04/09 03:29:04;;;;;;;68.97;41.95;;;;;;;;;;5034115;28;20088;-65
2023/04/09 03:31:30;;;;;;;59.65;40.45;;;;;;;;;;5032722;28;20034;-63
2023/04/09 03:33:56;;;;;;;62.13;39.92;;;;;;;;;;5031711;28;20021;-66
2023/04/09 03:36:22;;;;;;;66.28;39.83;;;;;;;;;;5034855;28;20133;-65
2023/04/09 03:38:48;;;;;;;64.72;40.70;;;;;;;;;;5034416;28;20018;-65
2023/04/09 03:41:14;;;;;;;61.97;38.22;;;;;;;;;;5032616;28;20083;-65
2023/04/09 03:43:40;;;;;;;65.93;40.60;;;;;;;;;;5031726;28;20490;-65
2023/04/09 03:46:16;;;;;;;63.30;41.40;;;;;;;;;;5035434;28;20060;-65
2023/04/09 03:48:43;;;;;;;67.40;39.92;;;;;;;;;;5033500;28;20036;-65
2023/04/09 03:51:16;;;;;;;63.53;39.70;;;;;;;;;;5032337;28;20102;-66
2023/04/09 03:53:42;;;;;;;65.35;42.05;;;;;;;;;;5032970;28;20406;-65
2023/04/09 03:56:08;;;;;;;64.47;40.58;;;;;;;;;;5032161;28;20108;-66
2023/04/09 03:58:34;;;;;;;64.18;42.45;;;;;;;;;;5032348;28;20033;-66
2023/04/09 04:01:00;;;;;;;65.97;44.10;;;;;;;;;;5033084;28;20026;-66
2023/04/09 04:03:26;;;;;;;66.97;43.85;;;;;;;;;;5032706;28;20500;-66
2023/04/09 04:05:53;;;;;;;63.30;39.95;;;;;;;;;;5033082;28;20036;-66
2023/04/09 04:08:19;;;;;;;66.03;40.22;;;;;;;;;;5033092;28;20200;-64
2023/04/09 04:10:45;;;;;;;65.60;40.75;;;;;;;;;;5033803;28;20026;-64
2023/04/09 04:13:11;;;;;;;67.85;40.67;;;;;;;;;;5031539;28;20032;-66
2023/04/09 04:15:43;;;;;;;66.38;42.20;;;;;;;;;;5032963;28;20030;-65
2023/04/09 04:18:09;;;;;;;67.85;41.17;;;;;;;;;;5033232;28;20025;-65
2023/04/09 04:20:36;;;;;;;70.05;41.45;;;;;;;;;;5033162;28;20025;-65
2023/04/09 04:23:02;;;;;;;70.68;41.58;;;;;;;;;;5032226;28;20489;-64
2023/04/09 04:25:28;;;;;;;66.80;40.70;;;;;;;;;;5032803;28;20425;-66
2023/04/09 04:27:55;;;;;;;69.05;42.88;;;;;;;;;;5032957;28;20025;-65
2023/04/09 04:30:21;;;;;;;76.47;43.70;;;;;;;;;;5031713;28;20025;-65
2023/04/09 04:32:47;;;;;;;68.47;41.25;;;;;;;;;;5032124;28;20108;-66
2023/04/09 04:35:13;;;;;;;72.07;42.90;;;;;;;;;;5030520;28;20030;-65
2023/04/09 04:37:39;;;;;;;70.70;43.67;;;;;;;;;;5031367;28;20116;-66
2023/04/09 04:40:06;;;;;;;65.75;41.00;;;;;;;;;;5031672;28;20029;-65
2023/04/09 04:42:32;;;;;;;62.20;40.97;;;;;;;;;;5033205;28;20064;-65
2023/04/09 04:44:58;;;;;;;73.25;43.85;;;;;;;;;;5030407;28;20517;-66
2023/04/09 04:47:24;;;;;;;70.85;42.38;;;;;;;;;;5031349;28;20116;-65
2023/04/09 04:49:50;;;;;;;79.35;43.33;;;;;;;;;;5032067;28;20490;-65
2023/04/09 04:52:16;;;;;;;71.00;41.83;;;;;;;;;;5016003;28;20040;-65
2023/04/09 04:54:42;;;;;;;65.07;41.55;;;;;;;;;;5013769;28;20022;-65
2023/04/09 04:57:09;;;;;;;73.28;43.58;;;;;;;;;;5014588;28;20022;-66
2023/04/09 04:59:41;;;;;;;74.68;42.95;;;;;;;;;;5032425;28;20051;-64
2023/04/09 05:02:07;;;;;;;69.53;41.90;;;;;;;;;;5032297;28;20025;-64
2023/04/09 05:04:33;;;;;;;72.65;42.25;;;;;;;;;;5031237;28;20026;-65
2023/04/09 05:07:00;;;;;;;68.82;43.85;;;;;;;;;;5014475;28;20028;-64
2023/04/09 05:09:27;;;;;;;75.57;45.67;;;;;;;;;;5031876;28;20040;-65
2023/04/09 05:11:53;;;;;;;72.28;42.35;;;;;;;;;;5032174;28;20497;-65
2023/04/09 05:14:20;;;;;;;71.88;42.15;;;;;;;;;;5013714;28;20052;-65
2023/04/09 05:16:46;;;;;;;78.35;46.33;;;;;;;;;;5032085;28;20025;-65
2023/04/09 05:19:12;;;;;;;76.35;43.85;;;;;;;;;;5014448;28;20087;-63
2023/04/09 05:21:38;;;;;;;70.50;42.53;;;;;;;;;;5014586;28;20026;-62
2023/04/09 05:24:05;;;;;;;73.75;44.08;;;;;;;;;;5031277;28;20047;-66
2023/04/09 05:26:31;;;;;;;74.75;44.55;;;;;;;;;;5014473;28;20025;-65
2023/04/09 05:28:57;;;;;;;78.63;46.03;;;;;;;;;;5032111;28;20028;-65
2023/04/09 05:31:23;;;;;;;76.43;44.20;;;;;;;;;;5031951;28;20025;-63
2023/04/09 05:33:49;;;;;;;71.53;43.40;;;;;;;;;;5013816;28;20030;-65
2023/04/09 05:36:16;;;;;;;67.93;43.08;;;;;;;;;;5041233;22;20460;-63
2023/04/09 05:38:42;;;;;;;70.80;44.00;;;;;;;;;;5029784;28;20033;-63
2023/04/09 05:41:08;;;;;;;68.88;43.83;;;;;;;;;;5027951;28;20025;-63
2023/04/09 05:43:34;;;;;;;73.65;42.17;;;;;;;;;;5029077;28;20030;-63
2023/04/09 05:46:00;;;;;;;72.72;42.83;;;;;;;;;;5033896;28;20033;-64
2023/04/09 05:48:26;;;;;;;75.93;42.88;;;;;;;;;;5034006;28;20037;-63
2023/04/09 05:50:52;;;;;;;72.80;43.58;;;;;;;;;;5032650;28;20034;-63
2023/04/09 05:53:18;;;;;;;82.78;48.22;;;;;;;;;;5033030;28;20030;-63
2023/04/09 05:55:45;;;;;;;67.72;44.25;;;;;;;;;;5024355;28;20025;-64
2023/04/09 05:58:11;;;;;;;72.00;43.35;;;;;;;;;;5033768;28;20111;-63
2023/04/09 06:00:37;;;;;;;63.20;42.10;;;;;;;;;;5033764;28;20027;-67
2023/04/09 06:03:04;;;;;;;68.57;40.60;;;;;;;;;;5033203;28;20083;-63
2023/04/09 06:05:30;;;;;;;65.03;42.35;;;;;;;;;;5033427;28;20104;-63
2023/04/09 06:07:56;;;;;;;62.88;41.05;;;;;;;;;;5032026;28;20564;-66
2023/04/09 06:10:22;;;;;;;68.53;41.25;;;;;;;;;;5032841;28;20053;-63
2023/04/09 06:12:48;;;;;;;71.55;41.45;;;;;;;;;;5033430;28;20018;-64
2023/04/09 06:15:14;;;;;;;64.65;41.17;;;;;;;;;;5032707;28;20087;-64
2023/04/09 06:17:40;;;;;;;68.80;43.65;;;;;;;;;;5033371;28;20017;-64
2023/04/09 06:20:06;;;;;;;66.63;41.53;;;;;;;;;;5033254;28;20418;-64
2023/04/09 06:22:32;;;;;;;65.35;41.25;;;;;;;;;;5033609;28;20179;-63
2023/04/09 06:24:59;;;;;;;63.72;38.78;;;;;;;;;;5032553;28;20104;-64
2023/04/09 06:27:25;;;;;;;60.00;38.00;;;;;;;;;;5033397;28;20414;-64
2023/04/09 06:29:51;;;;;;;64.93;42.10;;;;;;;;;;5033402;28;20026;-64
2023/04/09 06:32:17;;;;;;;60.55;39.72;;;;;;;;;;5015561;28;20489;-64
2023/04/09 06:34:43;;;;;;;67.70;40.33;;;;;;;;;;5032515;28;20089;-64
2023/04/09 06:37:09;;;;;;;63.08;40.13;;;;;;;;;;5033255;28;20029;-62
2023/04/09 06:39:35;;;;;;;58.17;37.28;;;;;;;;;;5020711;28;20025;-64
2023/04/09 06:42:02;;;;;;;59.80;39.22;;;;;;;;;;5023709;28;20036;-64
2023/04/09 06:44:29;;;;;;;60.58;38.22;;;;;;;;;;5032315;28;20382;-63
2023/04/09 06:46:55;;;;;;;55.05;37.13;;;;;;;;;;5033031;28;20033;-65
2023/04/09 06:49:21;;;;;;;62.63;40.72;;;;;;;;;;5015305;28;20037;-63
2023/04/09 06:51:47;;;;;;;53.03;37.10;;;;;;;;;;5033205;28;20017;-64
2023/04/09 06:54:13;;;;;;;54.88;36.83;;;;;;;;;;5014886;28;20412;-63
2023/04/09 06:56:39;;;;;;;55.60;36.85;;;;;;;;;;5031941;28;20145;-64
2023/04/09 06:59:05;;;;;;;56.88;34.00;;;;;;;;;;5033467;28;20014;-63
2023/04/09 07:01:34;;;;;;;53.20;34.60;;;;;;;;;;5015107;28;20033;-62
2023/04/09 07:04:00;;;;;;;54.17;34.53;;;;;;;;;;5031979;28;20013;-63
2023/04/09 07:06:26;;;;;;;56.65;37.85;;;;;;;;;;5032734;28;20080;-64
2023/04/09 07:08:52;;;;;;;49.50;32.47;;;;;;;;;;5032767;28;20490;-61
2023/04/09 07:11:18;;;;;;;51.97;34.70;;;;;;;;;;5032568;28;20044;-60
2023/04/09 07:13:44;;;;;;;51.13;32.95;;;;;;;;;;5031845;28;20033;-58
2023/04/09 07:16:10;;;;;;;50.85;32.72;;;;;;;;;;5032662;28;20035;-61
2023/04/09 07:18:36;;;;;;;54.97;35.40;;;;;;;;;;5032712;28;20109;-56
2023/04/09 07:21:02;;;;;;;50.03;30.95;;;;;;;;;;5032390;28;20026;-60
2023/04/09 07:23:28;;;;;;;50.45;33.60;;;;;;;;;;5031365;28;20037;-59
2023/04/09 07:25:54;;;;;;;47.42;29.98;;;;;;;;;;5032024;28;20029;-59
2023/04/09 07:28:20;;;;;;;49.45;32.58;;;;;;;;;;5032004;28;20236;-59
2023/04/09 07:30:46;;;;;;;45.83;28.88;;;;;;;;;;5032098;28;20541;-60
2023/04/09 07:33:12;;;;;;;49.05;30.40;;;;;;;;;;5031319;28;20025;-60
2023/04/09 07:35:38;;;;;;;51.53;32.85;;;;;;;;;;5029543;28;20021;-64
2023/04/09 07:38:04;;;;;;;58.20;39.35;;;;;;;;;;5029345;28;20143;-64
2023/04/09 07:40:30;;;;;;;52.15;31.58;;;;;;;;;;5022213;28;20040;-64
2023/04/09 07:42:57;;;;;;;45.78;27.50;;;;;;;;;;5031348;28;20509;-65
2023/04/09 07:45:23;;;;;;;46.55;28.08;;;;;;;;;;5030773;28;20520;-64
2023/04/09 07:47:49;;;;;;;44.45;26.27;;;;;;;;;;5031062;28;20032;-64
2023/04/09 07:50:15;;;;;;;42.40;26.63;;;;;;;;;;5031521;28;20022;-63
2023/04/09 07:52:41;;;;;;;43.20;26.65;;;;;;;;;;5031793;28;20017;-63
2023/04/09 07:55:07;;;;;;;43.97;28.42;;;;;;;;;;5030888;28;20026;-63
2023/04/09 07:57:33;;;;;;;41.88;26.23;;;;;;;;;;5030949;28;20474;-61
2023/04/09 08:00:00;;;;;;;37.35;23.15;;;;;;;;;;5030866;28;20514;-63
2023/04/09 08:02:26;;;;;;;38.72;22.73;;;;;;;;;;5031646;28;20110;-62
2023/04/09 08:04:52;;;;;;;35.63;22.70;;;;;;;;;;5030797;28;20026;-64
2023/04/09 08:07:18;;;;;;;38.15;23.63;;;;;;;;;;5013911;28;20033;-63
2023/04/09 08:09:44;;;;;;;39.33;23.10;;;;;;;;;;5013723;28;20025;-62
2023/04/09 08:12:11;;;;;;;40.17;23.42;;;;;;;;;;5031575;28;20072;-64
2023/04/09 08:14:37;;;;;;;36.83;23.55;;;;;;;;;;5030681;28;20029;-64
2023/04/09 08:17:04;;;;;;;34.90;22.65;;;;;;;;;;5031658;28;20097;-61
2023/04/09 08:19:30;;;;;;;37.03;21.90;;;;;;;;;;5031558;28;20029;-61
2023/04/09 08:21:57;;;;;;;36.72;21.88;;;;;;;;;;5031243;28;20029;-61
2023/04/09 08:24:23;;;;;;;34.65;21.77;;;;;;;;;;5030578;28;20021;-64
2023/04/09 08:26:50;;;;;;;33.50;19.67;;;;;;;;;;5031842;28;20080;-64
2023/04/09 08:29:16;;;;;;;34.95;19.63;;;;;;;;;;5042240;28;20486;-64
2023/04/09 08:31:42;;;;;;;33.80;20.50;;;;;;;;;;5031062;28;20056;-63
2023/04/09 08:34:08;;;;;;;34.65;21.27;;;;;;;;;;5029828;28;20486;-65
2023/04/09 08:36:34;;;;;;;32.33;21.75;;;;;;;;;;5030623;28;20029;-64
2023/04/09 08:39:00;;;;;;;34.33;20.60;;;;;;;;;;5030611;28;20025;-65
2023/04/09 08:41:30;;;;;;;33.85;21.10;;;;;;;;;;5012643;28;20069;-65
2023/04/09 08:43:56;;;;;;;33.60;20.98;;;;;;;;;;5030080;28;20026;-66
2023/04/09 08:46:22;;;;;;;28.90;18.50;;;;;;;;;;5030291;28;20083;-63
2023/04/09 08:48:50;;;;;;;28.80;18.33;;;;;;;;;;5030549;28;20030;-64
2023/04/09 08:51:17;;;;;;;31.42;20.30;;;;;;;;;;5030020;28;20492;-64
2023/04/09 08:53:47;;;;;;;33.88;19.38;;;;;;;;;;5029250;28;20029;-65
2023/04/09 08:56:14;;;;;;;30.95;18.88;;;;;;;;;;5029663;28;20021;-64
2023/04/09 08:58:44;;;;;;;31.92;18.42;;;;;;;;;;5030524;28;20374;-63
2023/04/09 09:01:22;;;;;;;30.58;19.52;;;;;;;;;;5013048;28;20547;-63
2023/04/09 09:03:59;;;;;;;31.42;19.38;;;;;;;;;;5030019;28;20025;-64
2023/04/09 09:06:27;;;;;;;29.42;18.05;;;;;;;;;;5030749;28;20022;-64
2023/04/09 09:09:09;;;;;;;29.63;19.02;;;;;;;;;;5030704;28;20032;-65
2023/04/09 09:11:36;;;;;;;30.85;19.30;;;;;;;;;;5030544;28;20508;-65
2023/04/09 09:14:02;;;;;;;30.65;18.13;;;;;;;;;;5029845;28;20083;-64
2023/04/09 09:16:29;;;;;;;31.23;18.33;;;;;;;;;;5030459;28;20025;-63
2023/04/09 09:18:55;;;;;;;28.17;18.02;;;;;;;;;;5026352;28;20022;-63
2023/04/09 09:21:21;;;;;;;31.35;18.25;;;;;;;;;;5030209;28;20025;-65
2023/04/09 09:23:49;;;;;;;29.42;18.88;;;;;;;;;;5029607;28;20025;-63
2023/04/09 09:26:19;;;;;;;28.38;18.73;;;;;;;;;;5014352;28;20025;-63
2023/04/09 09:28:45;;;;;;;29.73;19.42;;;;;;;;;;5010146;28;20032;-64
2023/04/09 09:31:12;;;;;;;28.60;17.80;;;;;;;;;;5010382;28;20030;-64
2023/04/09 09:33:38;;;;;;;28.50;18.63;;;;;;;;;;5009712;28;20018;-65
2023/04/09 09:36:04;;;;;;;29.90;18.83;;;;;;;;;;5010211;28;20049;-65
2023/04/09 09:38:31;;;;;;;26.40;16.92;;;;;;;;;;5010557;28;20064;-64
2023/04/09 09:40:57;;;;;;;26.20;17.50;;;;;;;;;;5009653;28;20029;-64
2023/04/09 09:43:23;;;;;;;26.23;16.77;;;;;;;;;;5009528;28;20056;-64
2023/04/09 09:45:50;;;;;;;25.65;16.90;;;;;;;;;;5010001;28;20475;-64
2023/04/09 09:48:16;;;;;;;26.33;17.15;;;;;;;;;;5015262;28;20029;-64
2023/04/09 09:50:42;;;;;;;24.95;16.65;;;;;;;;;;5029347;28;20029;-65
2023/04/09 09:53:09;;;;;;;29.13;18.15;;;;;;;;;;5028979;28;20026;-65
2023/04/09 09:55:40;;;;;;;26.88;18.25;;;;;;;;;;5029239;28;20021;-64
2023/04/09 09:58:26;;;;;;;25.25;17.02;;;;;;;;;;5029507;28;20025;-65
2023/04/09 10:00:52;;;;;;;26.33;16.83;;;;;;;;;;5029676;28;20045;-65
2023/04/09 10:03:25;;;;;;;25.10;17.10;;;;;;;;;;5028969;28;20026;-65
2023/04/09 10:05:52;;;;;;;24.70;17.48;;;;;;;;;;5029600;28;20039;-65
2023/04/09 10:08:18;;;;;;;24.98;17.13;;;;;;;;;;5029374;28;20100;-62
2023/04/09 10:10:45;;;;;;;24.10;16.75;;;;;;;;;;5029147;28;20048;-64
2023/04/09 10:13:32;;;;;;;24.58;17.15;;;;;;;;;;5012534;28;20490;-65
2023/04/09 10:15:58;;;;;;;28.65;18.08;;;;;;;;;;5023152;28;20041;-64
2023/04/09 10:18:25;;;;;;;25.55;17.65;;;;;;;;;;5012656;28;20029;-65
2023/04/09 10:21:14;;;;;;;26.80;18.45;;;;;;;;;;5015054;28;20021;-66
2023/04/09 10:23:41;;;;;;;26.13;17.58;;;;;;;;;;5027431;28;20105;-65
2023/04/09 10:26:08;;;;;;;27.70;18.67;;;;;;;;;;5032835;28;20059;-65
2023/04/09 10:28:34;;;;;;;25.77;17.95;;;;;;;;;;5028818;28;20048;-64
2023/04/09 10:31:00;;;;;;;26.52;18.08;;;;;;;;;;5031436;28;20029;-65
2023/04/09 10:33:27;;;;;;;25.35;17.75;;;;;;;;;;5032545;28;20068;-65
2023/04/09 10:35:54;;;;;;;25.02;17.30;;;;;;;;;;5032897;28;20088;-62
2023/04/09 10:38:40;;;;;;;26.65;18.17;;;;;;;;;;5032767;28;20026;-65
2023/04/09 10:41:26;;;;;;;25.63;18.20;;;;;;;;;;5032651;28;20033;-64
2023/04/09 10:43:52;;;;;;;24.67;16.77;;;;;;;;;;5032016;28;20397;-64
2023/04/09 10:46:26;;;;;;;25.67;16.13;;;;;;;;;;5032108;28;20081;-64
2023/04/09 10:49:27;;;;;;;22.67;16.08;;;;;;;;;;5032726;28;20431;-65
2023/04/09 10:52:01;;;;;;;25.42;15.73;;;;;;;;;;4952433;28;20099;-66
2023/04/09 10:54:32;;;;;;;23.27;15.50;;;;;;;;;;5019596;28;20122;-64
2023/04/09 10:57:07;;;;;;;23.80;16.60;;;;;;;;;;5032763;28;20025;-64
2023/04/09 10:59:39;;;;;;;23.90;16.52;;;;;;;;;;5032493;28;20026;-65
2023/04/09 11:02:07;;;;;;;22.10;15.65;;;;;;;;;;5033092;28;20472;-64
2023/04/09 11:04:40;;;;;;;22.23;15.77;;;;;;;;;;5030751;28;20587;-65
2023/04/09 11:07:07;;;;;;;21.92;14.85;;;;;;;;;;5031651;28;20018;-64
2023/04/09 11:09:36;;;;;;;23.17;16.27;;;;;;;;;;5016992;28;20009;-65
2023/04/09 11:12:02;;;;;;;24.50;16.70;;;;;;;;;;5032544;28;20025;-64
2023/04/09 11:14:28;;;;;;;22.70;15.32;;;;;;;;;;5014303;28;20030;-65
2023/04/09 11:16:55;;;;;;;22.00;15.85;;;;;;;;;;5031795;28;20033;-64
2023/04/09 11:19:21;;;;;;;24.58;16.33;;;;;;;;;;5024485;28;20048;-64
2023/04/09 11:21:50;;;;;;;22.70;15.48;;;;;;;;;;5028671;28;20025;-64
2023/04/09 11:24:18;;;;;;;22.50;15.35;;;;;;;;;;5031899;28;20538;-63
2023/04/09 11:26:44;;;;;;;24.48;16.17;;;;;;;;;;5022653;28;20494;-64
2023/04/09 11:29:11;;;;;;;21.17;15.10;;;;;;;;;;5032575;28;20021;-65
2023/04/09 11:31:37;;;;;;;23.70;15.95;;;;;;;;;;5023771;28;20022;-64
2023/04/09 11:34:03;;;;;;;23.63;16.58;;;;;;;;;;5031788;28;20398;-65
2023/04/09 11:36:30;;;;;;;24.00;17.30;;;;;;;;;;5037647;23;20042;-63
2023/04/09 11:38:57;;;;;;;24.90;17.13;;;;;;;;;;5039942;28;20030;-64
2023/04/09 11:41:34;;;;;;;23.70;16.25;;;;;;;;;;5032768;28;20112;-64
2023/04/09 11:44:02;;;;;;;22.90;16.27;;;;;;;;;;5032191;28;20033;-61
2023/04/09 11:46:29;;;;;;;24.60;16.85;;;;;;;;;;5031633;28;20041;-61
2023/04/09 11:48:55;;;;;;;22.60;16.52;;;;;;;;;;5030374;28;20034;-64
2023/04/09 11:51:22;;;;;;;22.55;16.10;;;;;;;;;;5033052;28;20549;-64
2023/04/09 11:53:49;;;;;;;24.88;16.98;;;;;;;;;;5031053;28;20033;-62
2023/04/09 11:56:15;;;;;;;23.00;16.65;;;;;;;;;;5032880;28;20028;-63
2023/04/09 11:58:48;;;;;;;22.50;16.70;;;;;;;;;;5031686;28;20116;-64
2023/04/09 12:01:15;;;;;;;21.00;15.82;;;;;;;;;;5032963;28;20034;-63
2023/04/09 12:03:41;;;;;;;24.40;17.63;;;;;;;;;;5030804;28;20045;-62
2023/04/09 12:06:10;;;;;;;21.48;16.20;;;;;;;;;;5032843;28;20084;-65
2023/04/09 12:08:36;;;;;;;24.25;17.27;;;;;;;;;;5032608;28;20056;-63
2023/04/09 12:11:12;;;;;;;23.25;16.95;;;;;;;;;;5032409;28;20482;-64
2023/04/09 12:13:44;;;;;;;24.25;16.88;;;;;;;;;;5031825;28;20045;-63
2023/04/09 12:16:11;;;;;;;23.40;17.27;;;;;;;;;;5032588;28;20029;-64
2023/04/09 12:18:37;;;;;;;22.08;16.65;;;;;;;;;;5014824;28;20045;-64
2023/04/09 12:21:03;;;;;;;23.73;17.30;;;;;;;;;;5032479;28;20389;-64
2023/04/09 12:23:32;;;;;;;22.98;17.15;;;;;;;;;;5031908;28;20032;-63
2023/04/09 12:26:01;;;;;;;23.33;18.10;;;;;;;;;;5032471;28;20029;-63
2023/04/09 12:28:28;;;;;;;23.25;17.80;;;;;;;;;;5014795;28;20025;-61
2023/04/09 12:30:54;;;;;;;24.20;17.55;;;;;;;;;;5032136;28;20032;-63
2023/04/09 12:33:20;;;;;;;22.92;16.98;;;;;;;;;;5013994;28;20104;-63
2023/04/09 12:35:46;;;;;;;23.42;18.48;;;;;;;;;;5031933;28;20026;-62
2023/04/09 12:38:12;;;;;;;22.48;17.85;;;;;;;;;;5032362;28;20123;-63
2023/04/09 12:40:39;;;;;;;22.10;17.27;;;;;;;;;;5014389;28;20029;-61
2023/04/09 12:43:05;;;;;;;21.63;16.80;;;;;;;;;;5031807;28;20043;-62
2023/04/09 12:45:31;;;;;;;20.92;16.50;;;;;;;;;;5032227;28;20051;-64
2023/04/09 12:47:57;;;;;;;21.08;16.17;;;;;;;;;;5013430;28;20034;-64
2023/04/09 12:50:23;;;;;;;21.73;15.65;;;;;;;;;;5031898;28;20026;-64
2023/04/09 12:52:49;;;;;;;21.05;15.88;;;;;;;;;;5032001;28;20028;-62
2023/04/09 12:55:16;;;;;;;23.42;16.65;;;;;;;;;;5013090;28;20533;-64
2023/04/09 12:57:48;;;;;;;21.10;15.70;;;;;;;;;;5032190;28;20025;-63
2023/04/09 13:00:14;;;;;;;21.67;16.13;;;;;;;;;;5014287;28;20524;-63
2023/04/09 13:02:40;;;;;;;22.70;17.00;;;;;;;;;;5031865;28;20017;-63
2023/04/09 13:05:07;;;;;;;23.50;17.77;;;;;;;;;;5028309;28;20029;-63
2023/04/09 13:07:33;;;;;;;22.75;16.05;;;;;;;;;;5031354;28;20500;-62
2023/04/09 13:09:59;;;;;;;22.60;16.30;;;;;;;;;;5031289;28;20052;-63
2023/04/09 13:12:25;;;;;;;20.25;15.02;;;;;;;;;;5031528;28;20481;-62
2023/04/09 13:14:52;;;;;;;21.40;15.63;;;;;;;;;;5031024;28;20043;-61
2023/04/09 13:17:18;;;;;;;22.05;16.00;;;;;;;;;;5029376;28;20025;-65
2023/04/09 13:19:44;;;;;;;21.65;15.77;;;;;;;;;;5029534;28;20490;-64
2023/04/09 13:22:10;;;;;;;20.48;15.43;;;;;;;;;;5031329;28;20094;-62
2023/04/09 13:24:37;;;;;;;20.40;15.60;;;;;;;;;;5030659;28;20533;-60
2023/04/09 13:27:04;;;;;;;20.55;15.57;;;;;;;;;;5031122;28;20022;-63
2023/04/09 13:29:30;;;;;;;20.52;15.07;;;;;;;;;;5031152;28;20029;-63
2023/04/09 13:31:56;;;;;;;20.00;15.27;;;;;;;;;;5031307;28;20072;-63
2023/04/09 13:34:23;;;;;;;20.17;14.95;;;;;;;;;;5030874;28;20022;-62
2023/04/09 13:36:49;;;;;;;19.88;15.00;;;;;;;;;;5030085;28;20033;-62
2023/04/09 13:39:15;;;;;;;20.02;14.95;;;;;;;;;;5031405;28;20445;-63
2023/04/09 13:41:41;;;;;;;20.92;15.85;;;;;;;;;;5031600;28;20105;-63
2023/04/09 13:44:07;;;;;;;21.38;15.52;;;;;;;;;;4680214;28;10000272;-62
2023/04/09 13:46:39;;;;;;;19.63;14.63;;;;;;;;;;5026629;28;20059;-63
2023/04/09 13:49:05;;;;;;;20.63;14.82;;;;;;;;;;5020615;28;20025;-63
2023/04/09 13:51:33;;;;;;;20.67;14.75;;;;;;;;;;5027785;28;20520;-62
2023/04/09 13:53:59;;;;;;;21.77;16.00;;;;;;;;;;5009211;28;20037;-60
2023/04/09 13:56:26;;;;;;;20.40;14.75;;;;;;;;;;5027806;28;20397;-60
2023/04/09 13:58:52;;;;;;;20.23;15.15;;;;;;;;;;5027600;28;20029;-62
2023/04/09 14:01:18;;;;;;;21.30;15.63;;;;;;;;;;5031441;28;20025;-62
2023/04/09 14:03:44;;;;;;;20.30;15.05;;;;;;;;;;5009314;28;20159;-61
2023/04/09 14:06:12;;;;;;;20.02;14.40;;;;;;;;;;5030121;28;20029;-63
2023/04/09 14:08:38;;;;;;;21.33;15.25;;;;;;;;;;5031354;28;20105;-62
2023/04/09 14:11:04;;;;;;;20.13;14.15;;;;;;;;;;5031189;28;20576;-62
2023/04/09 14:13:30;;;;;;;20.15;14.07;;;;;;;;;;5030877;28;20079;-63
2023/04/09 14:15:56;;;;;;;20.20;14.77;;;;;;;;;;5031187;28;20029;-63
2023/04/09 14:18:22;;;;;;;21.27;15.02;;;;;;;;;;5031405;28;20091;-60